sensor_id;sensor_type;location;lat;lon;timestamp;temperature;humidity
70557;DHT22;58107;51.034;3.726;2022-07-18T00:02:03;23.40;45.30
70557;DHT22;58107;51.034;3.726;2022-07-18T00:04:31;23.30;45.60
70557;DHT22;58107;51.034;3.726;2022-07-18T00:06:59;23.30;45.60
70557;DHT22;58107;51.034;3.726;2022-07-18T00:09:27;23.30;45.60
70557;DHT22;58107;51.034;3.726;2022-07-18T00:11:55;23.30;45.60
70557;DHT22;58107;51.034;3.726;2022-07-18T00:14:23;23.30;45.60
70557;DHT22;58107;51.034;3.726;2022-07-18T00:16:51;23.30;46.00
70557;DHT22;58107;51.034;3.726;2022-07-18T00:19:19;23.10;46.20
70557;DHT22;58107;51.034;3.726;2022-07-18T00:21:46;23.10;46.40
70557;DHT22;58107;51.034;3.726;2022-07-18T00:24:14;23.10;46.40
70557;DHT22;58107;51.034;3.726;2022-07-18T00:26:42;23.10;46.60
70557;DHT22;58107;51.034;3.726;2022-07-18T00:29:10;22.90;47.20
70557;DHT22;58107;51.034;3.726;2022-07-18T00:31:38;22.90;46.90
70557;DHT22;58107;51.034;3.726;2022-07-18T00:34:06;22.90;47.20
70557;DHT22;58107;51.034;3.726;2022-07-18T00:36:33;22.90;47.00
70557;DHT22;58107;51.034;3.726;2022-07-18T00:39:02;22.90;47.30
70557;DHT22;58107;51.034;3.726;2022-07-18T00:41:30;22.90;47.20
70557;DHT22;58107;51.034;3.726;2022-07-18T00:43:58;22.80;47.20
70557;DHT22;58107;51.034;3.726;2022-07-18T00:46:27;22.80;47.30
70557;DHT22;58107;51.034;3.726;2022-07-18T00:48:55;22.70;47.30
70557;DHT22;58107;51.034;3.726;2022-07-18T00:51:23;22.70;47.40
70557;DHT22;58107;51.034;3.726;2022-07-18T00:53:51;22.70;47.50
70557;DHT22;58107;51.034;3.726;2022-07-18T00:56:20;22.60;47.40
70557;DHT22;58107;51.034;3.726;2022-07-18T00:58:49;22.60;47.50
70557;DHT22;58107;51.034;3.726;2022-07-18T01:01:16;22.60;47.40
70557;DHT22;58107;51.034;3.726;2022-07-18T01:04:03;22.60;47.60
70557;DHT22;58107;51.034;3.726;2022-07-18T01:06:30;22.50;47.70
70557;DHT22;58107;51.034;3.726;2022-07-18T01:08:58;22.50;47.70
70557;DHT22;58107;51.034;3.726;2022-07-18T01:11:27;22.50;47.80
70557;DHT22;58107;51.034;3.726;2022-07-18T01:13:55;22.40;47.70
70557;DHT22;58107;51.034;3.726;2022-07-18T01:16:22;22.50;47.60
70557;DHT22;58107;51.034;3.726;2022-07-18T01:18:51;22.50;47.60
70557;DHT22;58107;51.034;3.726;2022-07-18T01:21:18;22.50;47.80
70557;DHT22;58107;51.034;3.726;2022-07-18T01:23:46;22.40;48.10
70557;DHT22;58107;51.034;3.726;2022-07-18T01:26:15;22.30;48.30
70557;DHT22;58107;51.034;3.726;2022-07-18T01:28:44;22.20;48.60
70557;DHT22;58107;51.034;3.726;2022-07-18T01:31:13;22.30;48.50
70557;DHT22;58107;51.034;3.726;2022-07-18T01:33:41;22.20;48.60
70557;DHT22;58107;51.034;3.726;2022-07-18T01:36:09;22.10;48.80
70557;DHT22;58107;51.034;3.726;2022-07-18T01:38:37;22.00;48.90
70557;DHT22;58107;51.034;3.726;2022-07-18T01:41:06;22.10;48.80
70557;DHT22;58107;51.034;3.726;2022-07-18T01:43:33;22.00;48.60
70557;DHT22;58107;51.034;3.726;2022-07-18T01:46:03;22.00;48.50
70557;DHT22;58107;51.034;3.726;2022-07-18T01:48:31;22.00;48.60
70557;DHT22;58107;51.034;3.726;2022-07-18T01:50:58;22.10;48.40
70557;DHT22;58107;51.034;3.726;2022-07-18T01:53:27;22.20;48.10
70557;DHT22;58107;51.034;3.726;2022-07-18T01:55:55;22.10;48.20
70557;DHT22;58107;51.034;3.726;2022-07-18T01:58:23;22.10;48.50
70557;DHT22;58107;51.034;3.726;2022-07-18T02:00:52;22.00;48.20
70557;DHT22;58107;51.034;3.726;2022-07-18T02:03:20;22.00;48.40
70557;DHT22;58107;51.034;3.726;2022-07-18T02:05:48;22.00;48.60
70557;DHT22;58107;51.034;3.726;2022-07-18T02:08:16;22.00;49.00
70557;DHT22;58107;51.034;3.726;2022-07-18T02:10:44;21.90;49.10
70557;DHT22;58107;51.034;3.726;2022-07-18T02:13:11;21.80;49.30
70557;DHT22;58107;51.034;3.726;2022-07-18T02:15:39;21.90;49.20
70557;DHT22;58107;51.034;3.726;2022-07-18T02:18:07;21.80;49.10
70557;DHT22;58107;51.034;3.726;2022-07-18T02:20:35;21.80;49.40
70557;DHT22;58107;51.034;3.726;2022-07-18T02:23:02;21.70;49.50
70557;DHT22;58107;51.034;3.726;2022-07-18T02:25:31;21.70;49.60
70557;DHT22;58107;51.034;3.726;2022-07-18T02:27:58;21.80;49.80
70557;DHT22;58107;51.034;3.726;2022-07-18T02:30:26;21.70;49.70
70557;DHT22;58107;51.034;3.726;2022-07-18T02:32:54;21.70;50.00
70557;DHT22;58107;51.034;3.726;2022-07-18T02:35:22;21.60;50.30
70557;DHT22;58107;51.034;3.726;2022-07-18T02:37:51;21.60;50.40
70557;DHT22;58107;51.034;3.726;2022-07-18T02:40:19;21.60;50.30
70557;DHT22;58107;51.034;3.726;2022-07-18T02:42:49;21.50;50.30
70557;DHT22;58107;51.034;3.726;2022-07-18T02:45:17;21.40;50.60
70557;DHT22;58107;51.034;3.726;2022-07-18T02:47:45;21.30;50.70
70557;DHT22;58107;51.034;3.726;2022-07-18T02:50:13;21.30;50.60
70557;DHT22;58107;51.034;3.726;2022-07-18T02:52:41;21.40;50.70
70557;DHT22;58107;51.034;3.726;2022-07-18T02:55:10;21.30;50.30
70557;DHT22;58107;51.034;3.726;2022-07-18T02:57:38;21.40;50.40
70557;DHT22;58107;51.034;3.726;2022-07-18T03:00:11;21.30;50.40
70557;DHT22;58107;51.034;3.726;2022-07-18T03:02:40;21.30;50.50
70557;DHT22;58107;51.034;3.726;2022-07-18T03:05:09;21.30;50.50
70557;DHT22;58107;51.034;3.726;2022-07-18T03:07:37;21.20;50.60
70557;DHT22;58107;51.034;3.726;2022-07-18T03:10:06;21.20;50.70
70557;DHT22;58107;51.034;3.726;2022-07-18T03:12:34;21.20;50.80
70557;DHT22;58107;51.034;3.726;2022-07-18T03:15:03;21.10;50.80
70557;DHT22;58107;51.034;3.726;2022-07-18T03:17:31;21.10;51.00
70557;DHT22;58107;51.034;3.726;2022-07-18T03:19:59;21.10;51.10
70557;DHT22;58107;51.034;3.726;2022-07-18T03:22:27;21.20;51.00
70557;DHT22;58107;51.034;3.726;2022-07-18T03:24:55;21.20;50.80
70557;DHT22;58107;51.034;3.726;2022-07-18T03:27:22;21.20;51.00
70557;DHT22;58107;51.034;3.726;2022-07-18T03:29:50;21.10;51.00
70557;DHT22;58107;51.034;3.726;2022-07-18T03:32:18;21.10;51.10
70557;DHT22;58107;51.034;3.726;2022-07-18T03:34:46;21.10;51.30
70557;DHT22;58107;51.034;3.726;2022-07-18T03:37:14;21.00;51.50
70557;DHT22;58107;51.034;3.726;2022-07-18T03:39:42;21.00;51.30
70557;DHT22;58107;51.034;3.726;2022-07-18T03:42:09;20.90;51.30
70557;DHT22;58107;51.034;3.726;2022-07-18T03:44:37;20.90;51.50
70557;DHT22;58107;51.034;3.726;2022-07-18T03:47:05;20.80;51.60
70557;DHT22;58107;51.034;3.726;2022-07-18T03:49:33;20.70;51.60
70557;DHT22;58107;51.034;3.726;2022-07-18T03:52:00;20.70;52.20
70557;DHT22;58107;51.034;3.726;2022-07-18T03:54:28;20.50;52.50
70557;DHT22;58107;51.034;3.726;2022-07-18T03:56:56;20.60;52.60
70557;DHT22;58107;51.034;3.726;2022-07-18T03:59:24;20.60;52.60
70557;DHT22;58107;51.034;3.726;2022-07-18T04:01:52;20.60;52.40
70557;DHT22;58107;51.034;3.726;2022-07-18T04:04:19;20.60;52.30
70557;DHT22;58107;51.034;3.726;2022-07-18T04:06:48;20.60;52.20
70557;DHT22;58107;51.034;3.726;2022-07-18T04:09:15;20.60;52.30
70557;DHT22;58107;51.034;3.726;2022-07-18T04:11:43;20.50;52.30
70557;DHT22;58107;51.034;3.726;2022-07-18T04:14:11;20.50;52.40
70557;DHT22;58107;51.034;3.726;2022-07-18T04:16:38;20.50;52.70
70557;DHT22;58107;51.034;3.726;2022-07-18T04:19:06;20.50;52.60
70557;DHT22;58107;51.034;3.726;2022-07-18T04:21:34;20.50;52.70
70557;DHT22;58107;51.034;3.726;2022-07-18T04:24:01;20.40;52.90
70557;DHT22;58107;51.034;3.726;2022-07-18T04:26:29;20.50;52.80
70557;DHT22;58107;51.034;3.726;2022-07-18T04:28:57;20.40;52.80
70557;DHT22;58107;51.034;3.726;2022-07-18T04:31:24;20.50;52.80
70557;DHT22;58107;51.034;3.726;2022-07-18T04:33:52;20.50;52.80
70557;DHT22;58107;51.034;3.726;2022-07-18T04:36:20;20.40;52.80
70557;DHT22;58107;51.034;3.726;2022-07-18T04:38:48;20.40;52.90
70557;DHT22;58107;51.034;3.726;2022-07-18T04:41:16;20.40;52.90
70557;DHT22;58107;51.034;3.726;2022-07-18T04:46:34;20.50;52.80
70557;DHT22;58107;51.034;3.726;2022-07-18T04:49:02;20.60;52.60
70557;DHT22;58107;51.034;3.726;2022-07-18T04:51:29;20.60;52.30
70557;DHT22;58107;51.034;3.726;2022-07-18T04:53:57;20.70;51.90
70557;DHT22;58107;51.034;3.726;2022-07-18T04:56:27;20.80;51.70
70557;DHT22;58107;51.034;3.726;2022-07-18T04:58:54;20.80;51.70
70557;DHT22;58107;51.034;3.726;2022-07-18T05:01:22;20.80;51.60
70557;DHT22;58107;51.034;3.726;2022-07-18T05:03:51;20.80;51.70
70557;DHT22;58107;51.034;3.726;2022-07-18T05:06:19;20.90;51.70
70557;DHT22;58107;51.034;3.726;2022-07-18T05:08:47;20.90;51.70
70557;DHT22;58107;51.034;3.726;2022-07-18T05:11:15;21.00;51.60
70557;DHT22;58107;51.034;3.726;2022-07-18T05:13:43;21.10;51.70
70557;DHT22;58107;51.034;3.726;2022-07-18T05:16:12;21.10;51.60
70557;DHT22;58107;51.034;3.726;2022-07-18T05:18:39;21.20;51.50
70557;DHT22;58107;51.034;3.726;2022-07-18T05:21:07;21.20;51.00
70557;DHT22;58107;51.034;3.726;2022-07-18T05:23:36;21.20;50.90
70557;DHT22;58107;51.034;3.726;2022-07-18T05:26:04;21.20;51.30
70557;DHT22;58107;51.034;3.726;2022-07-18T05:28:32;21.30;51.10
70557;DHT22;58107;51.034;3.726;2022-07-18T05:30:59;21.40;50.80
70557;DHT22;58107;51.034;3.726;2022-07-18T05:33:27;21.60;50.30
70557;DHT22;58107;51.034;3.726;2022-07-18T05:35:55;21.60;50.10
70557;DHT22;58107;51.034;3.726;2022-07-18T05:38:23;21.80;49.90
70557;DHT22;58107;51.034;3.726;2022-07-18T05:40:50;21.80;49.80
70557;DHT22;58107;51.034;3.726;2022-07-18T05:43:18;21.60;50.00
70557;DHT22;58107;51.034;3.726;2022-07-18T05:45:46;21.50;50.60
70557;DHT22;58107;51.034;3.726;2022-07-18T05:48:13;21.70;50.40
70557;DHT22;58107;51.034;3.726;2022-07-18T05:50:41;21.90;49.40
70557;DHT22;58107;51.034;3.726;2022-07-18T05:53:09;21.90;49.70
70557;DHT22;58107;51.034;3.726;2022-07-18T05:55:38;22.10;49.40
70557;DHT22;58107;51.034;3.726;2022-07-18T05:58:06;22.10;49.30
70557;DHT22;58107;51.034;3.726;2022-07-18T06:00:34;22.30;49.00
70557;DHT22;58107;51.034;3.726;2022-07-18T06:03:02;22.50;48.40
70557;DHT22;58107;51.034;3.726;2022-07-18T06:05:30;22.70;47.90
70557;DHT22;58107;51.034;3.726;2022-07-18T06:07:58;22.60;47.90
70557;DHT22;58107;51.034;3.726;2022-07-18T06:10:26;22.50;48.10
70557;DHT22;58107;51.034;3.726;2022-07-18T06:12:55;22.60;47.90
70557;DHT22;58107;51.034;3.726;2022-07-18T06:15:23;22.50;48.10
70557;DHT22;58107;51.034;3.726;2022-07-18T06:17:52;22.50;48.00
70557;DHT22;58107;51.034;3.726;2022-07-18T06:20:20;23.00;47.10
70557;DHT22;58107;51.034;3.726;2022-07-18T06:22:48;23.40;46.00
70557;DHT22;58107;51.034;3.726;2022-07-18T06:25:16;23.70;44.90
70557;DHT22;58107;51.034;3.726;2022-07-18T06:27:45;24.10;43.90
70557;DHT22;58107;51.034;3.726;2022-07-18T06:30:13;23.90;42.90
70557;DHT22;58107;51.034;3.726;2022-07-18T06:32:41;23.90;43.50
70557;DHT22;58107;51.034;3.726;2022-07-18T06:35:09;24.10;42.30
70557;DHT22;58107;51.034;3.726;2022-07-18T06:37:39;24.00;42.10
70557;DHT22;58107;51.034;3.726;2022-07-18T06:40:07;23.90;41.90
70557;DHT22;58107;51.034;3.726;2022-07-18T06:42:35;23.80;42.60
70557;DHT22;58107;51.034;3.726;2022-07-18T06:45:04;23.30;42.70
70557;DHT22;58107;51.034;3.726;2022-07-18T06:47:32;23.70;43.10
70557;DHT22;58107;51.034;3.726;2022-07-18T06:50:00;24.10;42.30
70557;DHT22;58107;51.034;3.726;2022-07-18T06:52:27;24.60;41.50
70557;DHT22;58107;51.034;3.726;2022-07-18T06:54:55;24.90;40.20
70557;DHT22;58107;51.034;3.726;2022-07-18T06:57:23;25.30;39.40
70557;DHT22;58107;51.034;3.726;2022-07-18T06:59:50;25.90;38.60
70557;DHT22;58107;51.034;3.726;2022-07-18T07:02:20;26.20;37.80
70557;DHT22;58107;51.034;3.726;2022-07-18T07:04:48;25.60;38.30
70557;DHT22;58107;51.034;3.726;2022-07-18T07:07:15;25.70;37.90
70557;DHT22;58107;51.034;3.726;2022-07-18T07:09:43;24.40;40.60
70557;DHT22;58107;51.034;3.726;2022-07-18T07:12:11;24.10;41.30
70557;DHT22;58107;51.034;3.726;2022-07-18T07:14:39;23.70;42.70
70557;DHT22;58107;51.034;3.726;2022-07-18T07:17:06;23.70;43.00
70557;DHT22;58107;51.034;3.726;2022-07-18T07:19:34;23.70;43.20
70557;DHT22;58107;51.034;3.726;2022-07-18T07:22:02;24.20;42.70
70557;DHT22;58107;51.034;3.726;2022-07-18T07:24:30;24.70;41.80
70557;DHT22;58107;51.034;3.726;2022-07-18T07:26:57;24.40;41.20
70557;DHT22;58107;51.034;3.726;2022-07-18T07:29:26;24.20;42.10
70557;DHT22;58107;51.034;3.726;2022-07-18T07:31:54;24.80;41.30
70557;DHT22;58107;51.034;3.726;2022-07-18T07:34:22;24.70;41.00
70557;DHT22;58107;51.034;3.726;2022-07-18T07:36:49;24.40;42.00
70557;DHT22;58107;51.034;3.726;2022-07-18T07:39:17;24.40;43.10
70557;DHT22;58107;51.034;3.726;2022-07-18T07:41:45;24.80;41.80
70557;DHT22;58107;51.034;3.726;2022-07-18T07:44:13;25.40;40.90
70557;DHT22;58107;51.034;3.726;2022-07-18T07:46:41;24.90;41.40
70557;DHT22;58107;51.034;3.726;2022-07-18T07:49:09;25.90;40.30
70557;DHT22;58107;51.034;3.726;2022-07-18T07:51:37;26.00;39.60
70557;DHT22;58107;51.034;3.726;2022-07-18T07:54:05;26.70;38.70
70557;DHT22;58107;51.034;3.726;2022-07-18T07:56:33;26.70;37.30
70557;DHT22;58107;51.034;3.726;2022-07-18T07:59:00;26.50;38.20
70557;DHT22;58107;51.034;3.726;2022-07-18T08:01:28;27.00;37.90
70557;DHT22;58107;51.034;3.726;2022-07-18T08:03:56;27.10;37.00
70557;DHT22;58107;51.034;3.726;2022-07-18T08:06:24;26.60;38.30
70557;DHT22;58107;51.034;3.726;2022-07-18T08:08:51;26.50;39.00
70557;DHT22;58107;51.034;3.726;2022-07-18T08:11:19;26.60;39.40
70557;DHT22;58107;51.034;3.726;2022-07-18T08:13:47;26.40;39.30
70557;DHT22;58107;51.034;3.726;2022-07-18T08:16:15;26.20;39.70
70557;DHT22;58107;51.034;3.726;2022-07-18T08:18:42;26.30;39.80
70557;DHT22;58107;51.034;3.726;2022-07-18T08:21:10;26.30;40.10
70557;DHT22;58107;51.034;3.726;2022-07-18T08:23:39;26.10;40.00
70557;DHT22;58107;51.034;3.726;2022-07-18T08:26:06;26.20;40.60
70557;DHT22;58107;51.034;3.726;2022-07-18T08:28:34;26.60;40.20
70557;DHT22;58107;51.034;3.726;2022-07-18T08:31:02;26.90;39.10
70557;DHT22;58107;51.034;3.726;2022-07-18T08:33:29;26.80;39.50
70557;DHT22;58107;51.034;3.726;2022-07-18T08:35:57;27.00;39.20
70557;DHT22;58107;51.034;3.726;2022-07-18T08:38:25;27.30;38.20
70557;DHT22;58107;51.034;3.726;2022-07-18T08:40:55;27.70;37.80
70557;DHT22;58107;51.034;3.726;2022-07-18T08:43:25;27.50;37.70
70557;DHT22;58107;51.034;3.726;2022-07-18T08:45:55;27.40;37.40
70557;DHT22;58107;51.034;3.726;2022-07-18T08:48:24;27.30;37.90
70557;DHT22;58107;51.034;3.726;2022-07-18T08:50:52;27.30;37.40
70557;DHT22;58107;51.034;3.726;2022-07-18T08:53:20;27.40;37.40
70557;DHT22;58107;51.034;3.726;2022-07-18T08:55:48;27.60;36.60
70557;DHT22;58107;51.034;3.726;2022-07-18T08:58:16;27.60;37.40
70557;DHT22;58107;51.034;3.726;2022-07-18T09:00:45;27.90;36.90
70557;DHT22;58107;51.034;3.726;2022-07-18T09:03:13;27.80;37.10
70557;DHT22;58107;51.034;3.726;2022-07-18T09:05:41;28.10;37.30
70557;DHT22;58107;51.034;3.726;2022-07-18T09:08:10;28.60;36.00
70557;DHT22;58107;51.034;3.726;2022-07-18T09:10:50;28.60;35.90
70557;DHT22;58107;51.034;3.726;2022-07-18T09:13:21;28.90;35.90
70557;DHT22;58107;51.034;3.726;2022-07-18T09:16:07;29.30;35.10
70557;DHT22;58107;51.034;3.726;2022-07-18T09:21:41;29.50;34.40
70557;DHT22;58107;51.034;3.726;2022-07-18T09:23:48;30.70;32.90
70557;DHT22;58107;51.034;3.726;2022-07-18T09:29:04;30.90;31.70
70557;DHT22;58107;51.034;3.726;2022-07-18T09:31:32;31.40;30.70
70557;DHT22;58107;51.034;3.726;2022-07-18T09:34:02;32.10;29.70
70557;DHT22;58107;51.034;3.726;2022-07-18T09:36:31;32.30;29.70
70557;DHT22;58107;51.034;3.726;2022-07-18T09:39:00;31.40;29.90
70557;DHT22;58107;51.034;3.726;2022-07-18T09:41:29;31.10;30.20
70557;DHT22;58107;51.034;3.726;2022-07-18T09:43:58;31.40;29.80
70557;DHT22;58107;51.034;3.726;2022-07-18T09:46:25;31.00;30.40
70557;DHT22;58107;51.034;3.726;2022-07-18T09:49:10;31.20;30.00
70557;DHT22;58107;51.034;3.726;2022-07-18T09:51:38;32.80;28.40
70557;DHT22;58107;51.034;3.726;2022-07-18T09:54:07;32.50;28.00
70557;DHT22;58107;51.034;3.726;2022-07-18T09:56:36;32.30;28.50
70557;DHT22;58107;51.034;3.726;2022-07-18T09:59:07;32.30;28.20
70557;DHT22;58107;51.034;3.726;2022-07-18T10:01:35;33.30;26.90
70557;DHT22;58107;51.034;3.726;2022-07-18T10:04:03;32.90;26.80
70557;DHT22;58107;51.034;3.726;2022-07-18T10:06:32;33.20;26.40
70557;DHT22;58107;51.034;3.726;2022-07-18T10:09:00;33.20;26.00
70557;DHT22;58107;51.034;3.726;2022-07-18T10:11:28;32.30;28.00
70557;DHT22;58107;51.034;3.726;2022-07-18T10:13:56;32.60;27.40
70557;DHT22;58107;51.034;3.726;2022-07-18T10:16:26;33.20;26.40
70557;DHT22;58107;51.034;3.726;2022-07-18T10:18:54;33.40;26.20
70557;DHT22;58107;51.034;3.726;2022-07-18T10:21:22;32.20;27.20
70557;DHT22;58107;51.034;3.726;2022-07-18T10:23:50;32.00;27.80
70557;DHT22;58107;51.034;3.726;2022-07-18T10:26:20;31.50;27.50
70557;DHT22;58107;51.034;3.726;2022-07-18T10:31:40;31.40;28.20
70557;DHT22;58107;51.034;3.726;2022-07-18T10:34:10;31.50;28.10
70557;DHT22;58107;51.034;3.726;2022-07-18T10:36:40;31.40;28.20
70557;DHT22;58107;51.034;3.726;2022-07-18T10:39:17;32.10;27.00
70557;DHT22;58107;51.034;3.726;2022-07-18T10:47:10;33.30;24.20
70557;DHT22;58107;51.034;3.726;2022-07-18T10:57:39;36.40;22.00
70557;DHT22;58107;51.034;3.726;2022-07-18T11:00:10;37.70;20.80
70557;DHT22;58107;51.034;3.726;2022-07-18T11:23:51;40.30;18.60
70557;DHT22;58107;51.034;3.726;2022-07-18T11:26:21;40.00;18.50
70557;DHT22;58107;51.034;3.726;2022-07-18T11:28:58;40.10;17.80
70557;DHT22;58107;51.034;3.726;2022-07-18T11:31:26;40.80;17.10
70557;DHT22;58107;51.034;3.726;2022-07-18T11:33:55;40.00;17.80
70557;DHT22;58107;51.034;3.726;2022-07-18T11:36:28;40.80;17.80
70557;DHT22;58107;51.034;3.726;2022-07-18T11:39:01;42.40;16.60
70557;DHT22;58107;51.034;3.726;2022-07-18T11:41:27;41.90;16.40
70557;DHT22;58107;51.034;3.726;2022-07-18T11:43:56;39.80;18.30
70557;DHT22;58107;51.034;3.726;2022-07-18T11:46:26;39.60;18.60
70557;DHT22;58107;51.034;3.726;2022-07-18T11:49:05;38.90;18.30
70557;DHT22;58107;51.034;3.726;2022-07-18T11:54:25;40.60;18.20
70557;DHT22;58107;51.034;3.726;2022-07-18T11:56:55;42.80;16.50
70557;DHT22;58107;51.034;3.726;2022-07-18T11:59:23;44.00;15.10
70557;DHT22;58107;51.034;3.726;2022-07-18T12:01:52;44.30;14.70
70557;DHT22;58107;51.034;3.726;2022-07-18T12:04:23;44.60;14.50
70557;DHT22;58107;51.034;3.726;2022-07-18T12:09:41;41.60;15.60
70557;DHT22;58107;51.034;3.726;2022-07-18T12:12:12;40.80;16.50
70557;DHT22;58107;51.034;3.726;2022-07-18T12:14:40;39.80;17.40
70557;DHT22;58107;51.034;3.726;2022-07-18T12:17:08;39.90;17.20
70557;DHT22;58107;51.034;3.726;2022-07-18T12:19:38;40.30;17.10
70557;DHT22;58107;51.034;3.726;2022-07-18T12:22:11;40.90;16.90
70557;DHT22;58107;51.034;3.726;2022-07-18T12:25:00;41.30;16.60
70557;DHT22;58107;51.034;3.726;2022-07-18T12:32:52;45.20;13.60
70557;DHT22;58107;51.034;3.726;2022-07-18T12:35:28;43.70;14.10
70557;DHT22;58107;51.034;3.726;2022-07-18T12:38:09;44.40;13.90
70557;DHT22;58107;51.034;3.726;2022-07-18T12:40:49;43.20;14.30
70557;DHT22;58107;51.034;3.726;2022-07-18T12:43:26;41.90;14.50
70557;DHT22;58107;51.034;3.726;2022-07-18T12:45:56;42.50;15.20
70557;DHT22;58107;51.034;3.726;2022-07-18T12:48:26;42.20;15.70
70557;DHT22;58107;51.034;3.726;2022-07-18T12:50:58;41.60;15.90
70557;DHT22;58107;51.034;3.726;2022-07-18T12:53:28;41.70;15.70
70557;DHT22;58107;51.034;3.726;2022-07-18T12:55:56;42.40;15.20
70557;DHT22;58107;51.034;3.726;2022-07-18T12:58:24;44.30;14.10
70557;DHT22;58107;51.034;3.726;2022-07-18T13:00:52;46.50;12.80
70557;DHT22;58107;51.034;3.726;2022-07-18T13:03:21;48.50;12.10
70557;DHT22;58107;51.034;3.726;2022-07-18T13:05:49;47.00;12.10
70557;DHT22;58107;51.034;3.726;2022-07-18T13:08:17;47.80;12.00
70557;DHT22;58107;51.034;3.726;2022-07-18T13:10:45;49.60;11.20
70557;DHT22;58107;51.034;3.726;2022-07-18T13:13:12;48.30;10.60
70557;DHT22;58107;51.034;3.726;2022-07-18T13:15:40;45.50;12.50
70557;DHT22;58107;51.034;3.726;2022-07-18T13:18:08;44.80;12.90
70557;DHT22;58107;51.034;3.726;2022-07-18T13:20:36;46.30;12.40
70557;DHT22;58107;51.034;3.726;2022-07-18T13:23:04;47.10;12.10
70557;DHT22;58107;51.034;3.726;2022-07-18T13:25:31;49.10;11.20
70557;DHT22;58107;51.034;3.726;2022-07-18T13:28:02;51.20;10.90
70557;DHT22;58107;51.034;3.726;2022-07-18T13:30:29;50.50;10.30
70557;DHT22;58107;51.034;3.726;2022-07-18T13:32:57;51.90;9.80
70557;DHT22;58107;51.034;3.726;2022-07-18T13:35:24;52.50;9.70
70557;DHT22;58107;51.034;3.726;2022-07-18T13:37:52;50.80;10.00
70557;DHT22;58107;51.034;3.726;2022-07-18T13:40:19;49.90;9.90
70557;DHT22;58107;51.034;3.726;2022-07-18T13:42:47;49.30;10.70
70557;DHT22;58107;51.034;3.726;2022-07-18T13:45:15;48.30;10.60
70557;DHT22;58107;51.034;3.726;2022-07-18T13:47:42;47.70;11.00
70557;DHT22;58107;51.034;3.726;2022-07-18T13:50:11;49.80;10.90
70557;DHT22;58107;51.034;3.726;2022-07-18T13:52:39;51.50;9.30
70557;DHT22;58107;51.034;3.726;2022-07-18T13:55:07;53.60;8.80
70557;DHT22;58107;51.034;3.726;2022-07-18T13:57:35;53.20;9.10
70557;DHT22;58107;51.034;3.726;2022-07-18T14:00:06;52.40;8.40
70557;DHT22;58107;51.034;3.726;2022-07-18T14:02:34;49.90;9.90
70557;DHT22;58107;51.034;3.726;2022-07-18T14:05:02;50.90;10.00
70557;DHT22;58107;51.034;3.726;2022-07-18T14:07:30;52.90;8.90
70557;DHT22;58107;51.034;3.726;2022-07-18T14:09:58;50.80;9.00
70557;DHT22;58107;51.034;3.726;2022-07-18T14:12:26;52.30;8.80
70557;DHT22;58107;51.034;3.726;2022-07-18T14:14:53;53.00;8.40
70557;DHT22;58107;51.034;3.726;2022-07-18T14:17:21;49.90;9.40
70557;DHT22;58107;51.034;3.726;2022-07-18T14:19:49;48.90;10.00
70557;DHT22;58107;51.034;3.726;2022-07-18T14:22:17;49.50;10.10
70557;DHT22;58107;51.034;3.726;2022-07-18T14:24:44;48.00;10.40
70557;DHT22;58107;51.034;3.726;2022-07-18T14:27:11;48.60;10.50
70557;DHT22;58107;51.034;3.726;2022-07-18T14:29:39;48.80;10.60
70557;DHT22;58107;51.034;3.726;2022-07-18T14:32:17;51.30;9.40
70557;DHT22;58107;51.034;3.726;2022-07-18T14:34:45;52.80;8.70
70557;DHT22;58107;51.034;3.726;2022-07-18T14:37:12;53.10;8.20
70557;DHT22;58107;51.034;3.726;2022-07-18T14:39:40;54.10;8.40
70557;DHT22;58107;51.034;3.726;2022-07-18T14:42:07;53.20;8.00
70557;DHT22;58107;51.034;3.726;2022-07-18T14:44:36;53.10;7.80
70557;DHT22;58107;51.034;3.726;2022-07-18T14:47:04;52.60;8.10
70557;DHT22;58107;51.034;3.726;2022-07-18T14:49:32;52.10;8.20
70557;DHT22;58107;51.034;3.726;2022-07-18T14:51:59;51.50;8.70
70557;DHT22;58107;51.034;3.726;2022-07-18T14:54:28;49.70;9.20
70557;DHT22;58107;51.034;3.726;2022-07-18T14:56:56;49.10;10.10
70557;DHT22;58107;51.034;3.726;2022-07-18T14:59:24;48.50;10.00
70557;DHT22;58107;51.034;3.726;2022-07-18T15:01:52;47.30;10.70
70557;DHT22;58107;51.034;3.726;2022-07-18T15:04:21;46.40;11.20
70557;DHT22;58107;51.034;3.726;2022-07-18T15:06:48;44.70;11.80
70557;DHT22;58107;51.034;3.726;2022-07-18T15:09:16;43.80;12.40
70557;DHT22;58107;51.034;3.726;2022-07-18T15:11:44;43.50;12.30
70557;DHT22;58107;51.034;3.726;2022-07-18T15:14:12;42.90;12.60
70557;DHT22;58107;51.034;3.726;2022-07-18T15:16:40;41.60;13.80
70557;DHT22;58107;51.034;3.726;2022-07-18T15:19:07;41.30;13.90
70557;DHT22;58107;51.034;3.726;2022-07-18T15:21:35;40.80;14.30
70557;DHT22;58107;51.034;3.726;2022-07-18T15:24:03;40.50;14.60
70557;DHT22;58107;51.034;3.726;2022-07-18T15:26:31;40.20;15.00
70557;DHT22;58107;51.034;3.726;2022-07-18T15:28:59;40.10;15.30
70557;DHT22;58107;51.034;3.726;2022-07-18T15:31:27;39.90;15.30
70557;DHT22;58107;51.034;3.726;2022-07-18T15:33:56;39.60;15.30
70557;DHT22;58107;51.034;3.726;2022-07-18T15:36:23;39.10;15.70
70557;DHT22;58107;51.034;3.726;2022-07-18T15:38:51;38.70;16.40
70557;DHT22;58107;51.034;3.726;2022-07-18T15:41:19;38.70;17.10
70557;DHT22;58107;51.034;3.726;2022-07-18T15:43:48;38.70;16.40
70557;DHT22;58107;51.034;3.726;2022-07-18T15:46:16;38.90;16.60
70557;DHT22;58107;51.034;3.726;2022-07-18T15:48:45;38.90;16.20
70557;DHT22;58107;51.034;3.726;2022-07-18T15:51:13;38.90;16.40
70557;DHT22;58107;51.034;3.726;2022-07-18T15:53:41;38.90;16.30
70557;DHT22;58107;51.034;3.726;2022-07-18T15:56:09;38.80;16.30
70557;DHT22;58107;51.034;3.726;2022-07-18T15:58:36;38.40;16.50
70557;DHT22;58107;51.034;3.726;2022-07-18T16:01:04;38.40;16.70
70557;DHT22;58107;51.034;3.726;2022-07-18T16:03:32;38.20;17.00
70557;DHT22;58107;51.034;3.726;2022-07-18T16:06:00;38.30;17.20
70557;DHT22;58107;51.034;3.726;2022-07-18T16:08:28;38.50;17.10
70557;DHT22;58107;51.034;3.726;2022-07-18T16:10:55;38.60;16.70
70557;DHT22;58107;51.034;3.726;2022-07-18T16:13:23;38.50;16.80
70557;DHT22;58107;51.034;3.726;2022-07-18T16:15:51;38.40;16.80
70557;DHT22;58107;51.034;3.726;2022-07-18T16:18:19;38.40;16.90
70557;DHT22;58107;51.034;3.726;2022-07-18T16:20:47;38.00;17.10
70557;DHT22;58107;51.034;3.726;2022-07-18T16:23:15;37.70;17.30
70557;DHT22;58107;51.034;3.726;2022-07-18T16:25:43;37.40;17.60
70557;DHT22;58107;51.034;3.726;2022-07-18T16:28:11;37.40;17.50
70557;DHT22;58107;51.034;3.726;2022-07-18T16:30:39;37.50;17.40
70557;DHT22;58107;51.034;3.726;2022-07-18T16:33:06;37.20;17.50
70557;DHT22;58107;51.034;3.726;2022-07-18T16:35:35;37.10;17.90
70557;DHT22;58107;51.034;3.726;2022-07-18T16:38:03;37.20;17.80